sensor_id;sensor_type;location;lat;lon;timestamp;pressure;altitude;pressure_sealevel;temperature;humidity
62508;BME280;48556;51.972;4.624;2023-02-18T00:01:29;102222.78;;;11.87;96.36
62508;BME280;48556;51.972;4.624;2023-02-18T00:03:59;102224.53;;;11.85;96.92
62508;BME280;48556;51.972;4.624;2023-02-18T00:06:28;102217.50;;;11.84;96.73
62508;BME280;48556;51.972;4.624;2023-02-18T00:09:03;102211.31;;;11.77;97.93
62508;BME280;48556;51.972;4.624;2023-02-18T00:11:31;102213.84;;;11.58;98.23
62508;BME280;48556;51.972;4.624;2023-02-18T00:14:00;102207.66;;;11.52;99.56
62508;BME280;48556;51.972;4.624;2023-02-18T00:16:30;102201.44;;;11.39;99.59
62508;BME280;48556;51.972;4.624;2023-02-18T00:19:02;102204.94;;;11.35;100.00
62508;BME280;48556;51.972;4.624;2023-02-18T00:21:29;102213.44;;;10.98;100.00
62508;BME280;48556;51.972;4.624;2023-02-18T00:23:55;102199.56;;;11.21;100.00
62508;BME280;48556;51.972;4.624;2023-02-18T00:26:22;102193.34;;;11.09;100.00
62508;BME280;48556;51.972;4.624;2023-02-18T00:28:49;102209.25;;;11.23;100.00
62508;BME280;48556;51.972;4.624;2023-02-18T00:31:22;102202.97;;;11.10;100.00
62508;BME280;48556;51.972;4.624;2023-02-18T00:33:48;102199.78;;;11.55;100.00
62508;BME280;48556;51.972;4.624;2023-02-18T00:36:16;102197.13;;;11.47;100.00
62508;BME280;48556;51.972;4.624;2023-02-18T00:38:47;102192.38;;;10.98;100.00
62508;BME280;48556;51.972;4.624;2023-02-18T00:41:12;102176.66;;;11.07;100.00
62508;BME280;48556;51.972;4.624;2023-02-18T00:43:38;102178.63;;;11.42;100.00
62508;BME280;48556;51.972;4.624;2023-02-18T00:46:04;102188.28;;;11.39;100.00
62508;BME280;48556;51.972;4.624;2023-02-18T00:48:31;102178.53;;;11.27;100.00
62508;BME280;48556;51.972;4.624;2023-02-18T00:50:56;102173.25;;;11.24;100.00
62508;BME280;48556;51.972;4.624;2023-02-18T00:53:34;102173.31;;;11.33;100.00
62508;BME280;48556;51.972;4.624;2023-02-18T00:56:00;102167.44;;;11.80;100.00
62508;BME280;48556;51.972;4.624;2023-02-18T00:58:26;102161.97;;;11.43;100.00
62508;BME280;48556;51.972;4.624;2023-02-18T01:00:53;102152.38;;;11.58;100.00
62508;BME280;48556;51.972;4.624;2023-02-18T01:03:19;102167.31;;;11.59;100.00
62508;BME280;48556;51.972;4.624;2023-02-18T01:05:47;102160.34;;;11.73;100.00
62508;BME280;48556;51.972;4.624;2023-02-18T01:08:15;102162.91;;;11.55;100.00
62508;BME280;48556;51.972;4.624;2023-02-18T01:10:45;102161.25;;;11.74;100.00
62508;BME280;48556;51.972;4.624;2023-02-18T01:13:11;102157.75;;;11.76;100.00
62508;BME280;48556;51.972;4.624;2023-02-18T01:15:38;102156.13;;;12.06;98.73
62508;BME280;48556;51.972;4.624;2023-02-18T01:18:04;102156.13;;;12.00;98.74
62508;BME280;48556;51.972;4.624;2023-02-18T01:20:30;102150.91;;;12.34;97.37
62508;BME280;48556;51.972;4.624;2023-02-18T01:22:56;102146.44;;;11.99;98.04
62508;BME280;48556;51.972;4.624;2023-02-18T01:25:21;102150.84;;;12.12;98.34
62508;BME280;48556;51.972;4.624;2023-02-18T01:27:56;102151.75;;;12.10;98.82
62508;BME280;48556;51.972;4.624;2023-02-18T01:30:22;102144.56;;;11.79;99.70
62508;BME280;48556;51.972;4.624;2023-02-18T01:32:48;102136.66;;;11.76;100.00
62508;BME280;48556;51.972;4.624;2023-02-18T01:35:16;102131.47;;;11.95;99.65
62508;BME280;48556;51.972;4.624;2023-02-18T01:37:42;102134.91;;;11.78;99.80
62508;BME280;48556;51.972;4.624;2023-02-18T01:40:10;102140.97;;;11.63;100.00
62508;BME280;48556;51.972;4.624;2023-02-18T01:42:44;102136.66;;;11.75;100.00
62508;BME280;48556;51.972;4.624;2023-02-18T01:48:03;102125.25;;;11.80;100.00
62508;BME280;48556;51.972;4.624;2023-02-18T01:50:33;102117.44;;;11.99;100.00
62508;BME280;48556;51.972;4.624;2023-02-18T01:53:01;102124.41;;;11.85;100.00
62508;BME280;48556;51.972;4.624;2023-02-18T01:55:28;102116.47;;;11.80;100.00
62508;BME280;48556;51.972;4.624;2023-02-18T01:57:54;102108.59;;;11.88;100.00
62508;BME280;48556;51.972;4.624;2023-02-18T02:00:20;102107.81;;;12.18;100.00
62508;BME280;48556;51.972;4.624;2023-02-18T02:02:50;102112.09;;;11.80;100.00
62508;BME280;48556;51.972;4.624;2023-02-18T02:05:18;102104.19;;;11.84;100.00
62508;BME280;48556;51.972;4.624;2023-02-18T02:07:45;102102.50;;;12.01;100.00
62508;BME280;48556;51.972;4.624;2023-02-18T02:10:21;102096.38;;;12.18;100.00
62508;BME280;48556;51.972;4.624;2023-02-18T02:26:57;102069.16;;;12.36;99.78
62508;BME280;48556;51.972;4.624;2023-02-18T02:46:20;102009.38;;;11.96;100.00
62508;BME280;48556;51.972;4.624;2023-02-18T02:48:58;102008.50;;;12.06;100.00
62508;BME280;48556;51.972;4.624;2023-02-18T02:51:49;102005.78;;;11.71;100.00
62508;BME280;48556;51.972;4.624;2023-02-18T02:54:20;101989.91;;;11.51;100.00
62508;BME280;48556;51.972;4.624;2023-02-18T03:00:01;101976.78;;;11.69;100.00
62508;BME280;48556;51.972;4.624;2023-02-18T03:05:43;101981.16;;;11.53;100.00
62508;BME280;48556;51.972;4.624;2023-02-18T03:14:07;101979.38;;;11.41;100.00
62508;BME280;48556;51.972;4.624;2023-02-18T03:19:23;101972.31;;;11.28;100.00
62508;BME280;48556;51.972;4.624;2023-02-18T03:24:47;101974.94;;;11.23;100.00
62508;BME280;48556;51.972;4.624;2023-02-18T03:29:54;101953.84;;;11.19;100.00
62508;BME280;48556;51.972;4.624;2023-02-18T03:32:23;101949.53;;;11.52;100.00
62508;BME280;48556;51.972;4.624;2023-02-18T03:35:01;101935.50;;;11.73;100.00
62508;BME280;48556;51.972;4.624;2023-02-18T03:37:30;101925.84;;;11.69;100.00
62508;BME280;48556;51.972;4.624;2023-02-18T03:40:00;101931.94;;;11.32;100.00
62508;BME280;48556;51.972;4.624;2023-02-18T03:42:36;101921.38;;;11.24;100.00
62508;BME280;48556;51.972;4.624;2023-02-18T03:45:02;101920.50;;;11.27;100.00
62508;BME280;48556;51.972;4.624;2023-02-18T03:47:36;101919.69;;;11.37;100.00
62508;BME280;48556;51.972;4.624;2023-02-18T03:50:02;101925.84;;;11.55;100.00
62508;BME280;48556;51.972;4.624;2023-02-18T03:52:28;101908.22;;;11.26;100.00
62508;BME280;48556;51.972;4.624;2023-02-18T03:54:53;101922.19;;;11.02;100.00
62508;BME280;48556;51.972;4.624;2023-02-18T03:57:19;101909.97;;;11.30;100.00
62508;BME280;48556;51.972;4.624;2023-02-18T03:59:45;101912.63;;;11.24;100.00
62508;BME280;48556;51.972;4.624;2023-02-18T04:02:11;101920.50;;;11.30;100.00
62508;BME280;48556;51.972;4.624;2023-02-18T04:04:36;101905.66;;;11.65;100.00
62508;BME280;48556;51.972;4.624;2023-02-18T04:07:02;101909.16;;;11.57;100.00
62508;BME280;48556;51.972;4.624;2023-02-18T04:09:27;101913.53;;;11.51;100.00
62508;BME280;48556;51.972;4.624;2023-02-18T04:11:56;101908.28;;;11.44;100.00
62508;BME280;48556;51.972;4.624;2023-02-18T04:14:21;101902.97;;;11.35;100.00
62508;BME280;48556;51.972;4.624;2023-02-18T04:16:47;101910.88;;;11.34;100.00
62508;BME280;48556;51.972;4.624;2023-02-18T04:19:14;101905.63;;;11.40;100.00
62508;BME280;48556;51.972;4.624;2023-02-18T04:21:39;101902.13;;;11.32;100.00
62508;BME280;48556;51.972;4.624;2023-02-18T04:24:05;101910.00;;;11.36;100.00
62508;BME280;48556;51.972;4.624;2023-02-18T04:26:30;101891.59;;;11.35;100.00
62508;BME280;48556;51.972;4.624;2023-02-18T04:28:56;101895.09;;;11.29;100.00
62508;BME280;48556;51.972;4.624;2023-02-18T04:31:21;101911.78;;;11.40;100.00
62508;BME280;48556;51.972;4.624;2023-02-18T04:33:56;101888.06;;;11.36;100.00
62508;BME280;48556;51.972;4.624;2023-02-18T04:36:22;101890.72;;;11.63;100.00
62508;BME280;48556;51.972;4.624;2023-02-18T04:38:48;101889.84;;;11.60;100.00
62508;BME280;48556;51.972;4.624;2023-02-18T04:41:13;101877.53;;;11.39;100.00
62508;BME280;48556;51.972;4.624;2023-02-18T04:43:39;101881.03;;;11.18;100.00
62508;BME280;48556;51.972;4.624;2023-02-18T04:46:04;101876.63;;;11.23;100.00
62508;BME280;48556;51.972;4.624;2023-02-18T04:48:30;101861.72;;;11.31;100.00
62508;BME280;48556;51.972;4.624;2023-02-18T04:50:56;101858.22;;;11.37;100.00
62508;BME280;48556;51.972;4.624;2023-02-18T04:53:21;101850.31;;;11.35;100.00
62508;BME280;48556;51.972;4.624;2023-02-18T04:55:51;101858.22;;;11.35;100.00
62508;BME280;48556;51.972;4.624;2023-02-18T04:58:18;101855.56;;;11.20;100.00
62508;BME280;48556;51.972;4.624;2023-02-18T05:00:44;101852.94;;;11.14;100.00
62508;BME280;48556;51.972;4.624;2023-02-18T05:03:10;101846.81;;;11.41;100.00
62508;BME280;48556;51.972;4.624;2023-02-18T05:05:35;101840.69;;;11.57;100.00
62508;BME280;48556;51.972;4.624;2023-02-18T05:08:02;101856.47;;;11.57;100.00
62508;BME280;48556;51.972;4.624;2023-02-18T05:10:28;101859.13;;;11.56;100.00
62508;BME280;48556;51.972;4.624;2023-02-18T05:12:55;101877.53;;;11.46;100.00
62508;BME280;48556;51.972;4.624;2023-02-18T05:15:20;101849.44;;;11.38;100.00
62508;BME280;48556;51.972;4.624;2023-02-18T05:17:46;101849.47;;;11.61;100.00
62508;BME280;48556;51.972;4.624;2023-02-18T05:20:12;101860.84;;;11.38;100.00
62508;BME280;48556;51.972;4.624;2023-02-18T05:22:38;101851.19;;;11.31;100.00
62508;BME280;48556;51.972;4.624;2023-02-18T05:25:04;101846.84;;;11.49;100.00
62508;BME280;48556;51.972;4.624;2023-02-18T05:27:30;101856.50;;;11.53;100.00
62508;BME280;48556;51.972;4.624;2023-02-18T05:29:56;101843.31;;;11.74;100.00
62508;BME280;48556;51.972;4.624;2023-02-18T05:32:22;101833.66;;;11.61;100.00
62508;BME280;48556;51.972;4.624;2023-02-18T05:34:48;101825.75;;;11.52;100.00
62508;BME280;48556;51.972;4.624;2023-02-18T05:37:14;101832.78;;;11.68;100.00
62508;BME280;48556;51.972;4.624;2023-02-18T05:39:40;101840.69;;;11.68;100.00
62508;BME280;48556;51.972;4.624;2023-02-18T05:42:06;101832.78;;;11.39;100.00
62508;BME280;48556;51.972;4.624;2023-02-18T05:44:32;101829.22;;;11.26;100.00
62508;BME280;48556;51.972;4.624;2023-02-18T05:47:01;101823.13;;;11.47;100.00
62508;BME280;48556;51.972;4.624;2023-02-18T05:49:35;101830.13;;;11.43;100.00
62508;BME280;48556;51.972;4.624;2023-02-18T05:52:02;101822.25;;;11.43;100.00
62508;BME280;48556;51.972;4.624;2023-02-18T05:54:38;101810.81;;;11.32;100.00
62508;BME280;48556;51.972;4.624;2023-02-18T05:57:04;101818.75;;;11.44;100.00
62508;BME280;48556;51.972;4.624;2023-02-18T05:59:30;101811.69;;;11.59;100.00
62508;BME280;48556;51.972;4.624;2023-02-18T06:01:56;101821.34;;;11.37;100.00
62508;BME280;48556;51.972;4.624;2023-02-18T06:04:22;101825.75;;;11.76;100.00
62508;BME280;48556;51.972;4.624;2023-02-18T06:06:47;101829.25;;;11.38;100.00
62508;BME280;48556;51.972;4.624;2023-02-18T06:09:13;101809.94;;;11.52;100.00
62508;BME280;48556;51.972;4.624;2023-02-18T06:11:39;101812.56;;;11.44;100.00
62508;BME280;48556;51.972;4.624;2023-02-18T06:14:04;101816.97;;;11.68;100.00
62508;BME280;48556;51.972;4.624;2023-02-18T06:16:30;101829.28;;;11.41;100.00
62508;BME280;48556;51.972;4.624;2023-02-18T06:18:57;101817.84;;;11.55;100.00
62508;BME280;48556;51.972;4.624;2023-02-18T06:21:23;101810.81;;;11.32;100.00
62508;BME280;48556;51.972;4.624;2023-02-18T06:23:48;101807.28;;;11.16;100.00
62508;BME280;48556;51.972;4.624;2023-02-18T06:26:14;101816.09;;;11.35;100.00
62508;BME280;48556;51.972;4.624;2023-02-18T06:28:40;101828.38;;;11.59;100.00
62508;BME280;48556;51.972;4.624;2023-02-18T06:31:05;101806.44;;;11.34;100.00
62508;BME280;48556;51.972;4.624;2023-02-18T06:33:31;101812.59;;;11.21;100.00
62508;BME280;48556;51.972;4.624;2023-02-18T06:36:00;101808.19;;;11.31;100.00
62508;BME280;48556;51.972;4.624;2023-02-18T06:38:26;101809.06;;;11.28;100.00
62508;BME280;48556;51.972;4.624;2023-02-18T06:40:52;101798.53;;;11.42;100.00
62508;BME280;48556;51.972;4.624;2023-02-18T06:43:19;101795.00;;;11.24;100.00
62508;BME280;48556;51.972;4.624;2023-02-18T06:45:45;101812.56;;;11.59;100.00
62508;BME280;48556;51.972;4.624;2023-02-18T06:48:12;101791.50;;;11.52;100.00
62508;BME280;48556;51.972;4.624;2023-02-18T06:50:40;101803.81;;;11.42;100.00
62508;BME280;48556;51.972;4.624;2023-02-18T06:53:06;101806.44;;;11.40;100.00
62508;BME280;48556;51.972;4.624;2023-02-18T06:55:32;101788.00;;;11.23;100.00
62508;BME280;48556;51.972;4.624;2023-02-18T06:58:03;101813.44;;;11.26;100.00
62508;BME280;48556;51.972;4.624;2023-02-18T07:00:29;101802.91;;;11.17;100.00
62508;BME280;48556;51.972;4.624;2023-02-18T07:02:55;101795.91;;;11.53;100.00
62508;BME280;48556;51.972;4.624;2023-02-18T07:05:20;101815.22;;;11.18;100.00
62508;BME280;48556;51.972;4.624;2023-02-18T07:07:46;101802.91;;;11.17;100.00
62508;BME280;48556;51.972;4.624;2023-02-18T07:10:11;101816.06;;;11.03;100.00
62508;BME280;48556;51.972;4.624;2023-02-18T07:12:37;101802.94;;;11.14;100.00
62508;BME280;48556;51.972;4.624;2023-02-18T07:15:03;101803.81;;;11.26;100.00
62508;BME280;48556;51.972;4.624;2023-02-18T07:17:30;101802.94;;;11.14;99.35
62508;BME280;48556;51.972;4.624;2023-02-18T07:20:05;101792.38;;;11.04;99.63
62508;BME280;48556;51.972;4.624;2023-02-18T07:22:31;101795.91;;;11.11;99.63
62508;BME280;48556;51.972;4.624;2023-02-18T07:25:01;101797.63;;;11.01;99.32
62508;BME280;48556;51.972;4.624;2023-02-18T07:27:27;101801.16;;;11.22;98.49
62508;BME280;48556;51.972;4.624;2023-02-18T07:29:53;101801.16;;;11.09;97.63
62508;BME280;48556;51.972;4.624;2023-02-18T07:32:19;101795.91;;;11.16;96.65
62508;BME280;48556;51.972;4.624;2023-02-18T07:34:44;101798.53;;;11.16;96.25
62508;BME280;48556;51.972;4.624;2023-02-18T07:37:10;101801.16;;;11.22;95.75
62508;BME280;48556;51.972;4.624;2023-02-18T07:39:43;101798.53;;;11.14;95.30
62508;BME280;48556;51.972;4.624;2023-02-18T07:42:17;101788.00;;;11.25;94.06
62508;BME280;48556;51.972;4.624;2023-02-18T07:44:43;101793.28;;;11.25;93.42
62508;BME280;48556;51.972;4.624;2023-02-18T07:47:15;101802.06;;;11.50;92.84
62508;BME280;48556;51.972;4.624;2023-02-18T07:50:02;101810.81;;;11.17;93.69
62508;BME280;48556;51.972;4.624;2023-02-18T07:52:31;101810.84;;;11.48;92.37
62508;BME280;48556;51.972;4.624;2023-02-18T07:54:57;101803.81;;;11.53;91.58
62508;BME280;48556;51.972;4.624;2023-02-18T07:57:23;101808.16;;;11.00;93.62
62508;BME280;48556;51.972;4.624;2023-02-18T07:59:48;101811.69;;;11.09;93.58
62508;BME280;48556;51.972;4.624;2023-02-18T08:02:20;101824.81;;;10.99;93.71
62508;BME280;48556;51.972;4.624;2023-02-18T08:04:47;101819.56;;;10.99;94.74
62508;BME280;48556;51.972;4.624;2023-02-18T08:07:14;101799.41;;;11.08;94.00
62508;BME280;48556;51.972;4.624;2023-02-18T08:09:46;101813.41;;;10.92;95.02
62508;BME280;48556;51.972;4.624;2023-02-18T08:12:14;101816.84;;;10.72;96.32
62508;BME280;48556;51.972;4.624;2023-02-18T08:14:40;101800.22;;;10.72;96.28
62508;BME280;48556;51.972;4.624;2023-02-18T08:17:06;101816.03;;;10.90;95.65
62508;BME280;48556;51.972;4.624;2023-02-18T08:19:32;101805.50;;;10.95;95.44
62508;BME280;48556;51.972;4.624;2023-02-18T08:22:01;101823.03;;;10.77;96.72
62508;BME280;48556;51.972;4.624;2023-02-18T08:24:27;101819.56;;;10.97;98.06
62508;BME280;48556;51.972;4.624;2023-02-18T08:26:55;101817.78;;;10.93;97.52
62508;BME280;48556;51.972;4.624;2023-02-18T08:29:20;101820.44;;;11.07;96.83
62508;BME280;48556;51.972;4.624;2023-02-18T08:31:49;101817.75;;;10.81;97.97
62508;BME280;48556;51.972;4.624;2023-02-18T08:34:18;101823.03;;;10.79;98.71
62508;BME280;48556;51.972;4.624;2023-02-18T08:36:46;101822.19;;;11.00;97.22
62508;BME280;48556;51.972;4.624;2023-02-18T08:39:12;101816.81;;;10.63;97.73
62508;BME280;48556;51.972;4.624;2023-02-18T08:41:38;101808.13;;;10.89;96.55
62508;BME280;48556;51.972;4.624;2023-02-18T08:44:04;101819.53;;;10.86;96.06
62508;BME280;48556;51.972;4.624;2023-02-18T08:46:30;101809.88;;;10.81;95.87
62508;BME280;48556;51.972;4.624;2023-02-18T08:48:56;101820.38;;;10.74;96.44
62508;BME280;48556;51.972;4.624;2023-02-18T08:51:22;101797.63;;;11.00;95.36
62508;BME280;48556;51.972;4.624;2023-02-18T08:53:48;101815.19;;;11.05;93.89
62508;BME280;48556;51.972;4.624;2023-02-18T08:56:15;101808.16;;;11.01;94.27
62508;BME280;48556;51.972;4.624;2023-02-18T08:58:42;101840.63;;;11.00;93.88
62508;BME280;48556;51.972;4.624;2023-02-18T09:01:10;101822.19;;;11.00;93.16
62508;BME280;48556;51.972;4.624;2023-02-18T09:03:36;101830.16;;;11.37;91.52
62508;BME280;48556;51.972;4.624;2023-02-18T09:06:02;101848.56;;;11.31;91.51
62508;BME280;48556;51.972;4.624;2023-02-18T09:08:29;101856.41;;;11.05;92.39
62508;BME280;48556;51.972;4.624;2023-02-18T09:10:59;101845.91;;;11.14;92.71
62508;BME280;48556;51.972;4.624;2023-02-18T09:13:26;101849.41;;;11.10;92.55
62508;BME280;48556;51.972;4.624;2023-02-18T09:16:00;101856.44;;;11.09;93.37
62508;BME280;48556;51.972;4.624;2023-02-18T09:18:33;101854.63;;;10.91;94.06
62508;BME280;48556;51.972;4.624;2023-02-18T09:21:00;101849.47;;;11.33;93.38
62508;BME280;48556;51.972;4.624;2023-02-18T09:23:29;101852.91;;;11.10;92.96
62508;BME280;48556;51.972;4.624;2023-02-18T09:26:02;101846.78;;;11.11;93.05
62508;BME280;48556;51.972;4.624;2023-02-18T09:28:28;101860.84;;;11.14;93.20
62508;BME280;48556;51.972;4.624;2023-02-18T09:30:53;101843.31;;;11.23;91.71
62508;BME280;48556;51.972;4.624;2023-02-18T09:33:19;101857.28;;;11.02;93.44
62508;BME280;48556;51.972;4.624;2023-02-18T09:35:45;101871.31;;;11.07;93.75
62508;BME280;48556;51.972;4.624;2023-02-18T09:42:04;101881.88;;;11.14;93.38
62508;BME280;48556;51.972;4.624;2023-02-18T09:44:59;101876.63;;;11.20;93.54
62508;BME280;48556;51.972;4.624;2023-02-18T09:47:38;101880.19;;;11.37;92.40
62508;BME280;48556;51.972;4.624;2023-02-18T09:50:57;101871.41;;;11.41;92.15
62508;BME280;48556;51.972;4.624;2023-02-18T09:53:48;101888.91;;;11.21;93.38
62508;BME280;48556;51.972;4.624;2023-02-18T09:56:48;101882.81;;;11.43;92.50
62508;BME280;48556;51.972;4.624;2023-02-18T09:59:25;101881.03;;;11.30;92.71
62508;BME280;48556;51.972;4.624;2023-02-18T10:02:08;101913.47;;;11.17;93.58
62508;BME280;48556;51.972;4.624;2023-02-18T10:04:42;101890.66;;;11.08;94.13
62508;BME280;48556;51.972;4.624;2023-02-18T10:07:26;101881.03;;;11.38;93.68
62508;BME280;48556;51.972;4.624;2023-02-18T10:09:55;101885.44;;;11.40;93.69
62508;BME280;48556;51.972;4.624;2023-02-18T10:12:24;101884.56;;;11.29;93.31
62508;BME280;48556;51.972;4.624;2023-02-18T10:14:53;101908.25;;;11.34;93.26
62508;BME280;48556;51.972;4.624;2023-02-18T10:17:22;101892.44;;;11.38;93.66
62508;BME280;48556;51.972;4.624;2023-02-18T10:20:09;101919.69;;;11.59;92.89
62508;BME280;48556;51.972;4.624;2023-02-18T10:22:41;101917.09;;;11.80;92.03
62508;BME280;48556;51.972;4.624;2023-02-18T10:25:07;101912.66;;;11.56;93.12
62508;BME280;48556;51.972;4.624;2023-02-18T10:27:37;101911.78;;;11.77;92.99
62508;BME280;48556;51.972;4.624;2023-02-18T10:30:29;101909.16;;;11.88;91.88
62508;BME280;48556;51.972;4.624;2023-02-18T10:33:01;101893.41;;;11.96;90.72
62508;BME280;48556;51.972;4.624;2023-02-18T10:35:52;101929.34;;;11.69;92.23
62508;BME280;48556;51.972;4.624;2023-02-18T10:41:24;101931.09;;;11.55;92.41
62508;BME280;48556;51.972;4.624;2023-02-18T10:44:13;101933.78;;;11.78;93.41
62508;BME280;48556;51.972;4.624;2023-02-18T10:50:00;101915.34;;;11.98;91.62
62508;BME280;48556;51.972;4.624;2023-02-18T10:52:39;101923.25;;;12.12;90.67
62508;BME280;48556;51.972;4.624;2023-02-18T10:55:16;101941.72;;;12.07;90.34
62508;BME280;48556;51.972;4.624;2023-02-18T10:57:47;101914.47;;;12.08;91.17
62508;BME280;48556;51.972;4.624;2023-02-18T11:00:17;101917.97;;;12.15;90.57
62508;BME280;48556;51.972;4.624;2023-02-18T11:02:43;101922.38;;;12.14;90.17
62508;BME280;48556;51.972;4.624;2023-02-18T11:05:28;101914.44;;;12.28;90.49
62508;BME280;48556;51.972;4.624;2023-02-18T11:07:56;101922.38;;;12.24;90.07
62508;BME280;48556;51.972;4.624;2023-02-18T11:10:26;101917.94;;;12.29;90.13
62508;BME280;48556;51.972;4.624;2023-02-18T11:13:04;101911.81;;;12.14;90.78
62508;BME280;48556;51.972;4.624;2023-02-18T11:15:32;101908.34;;;12.00;91.97
62508;BME280;48556;51.972;4.624;2023-02-18T11:20:59;101913.53;;;12.43;90.35
62508;BME280;48556;51.972;4.624;2023-02-18T11:23:28;101924.09;;;12.34;89.71
62508;BME280;48556;51.972;4.624;2023-02-18T11:25:59;101931.13;;;12.32;90.47
62508;BME280;48556;51.972;4.624;2023-02-18T11:28:36;101915.25;;;12.57;89.18
62508;BME280;48556;51.972;4.624;2023-02-18T11:31:04;101941.72;;;12.20;90.48
62508;BME280;48556;51.972;4.624;2023-02-18T11:33:38;101928.47;;;12.30;90.00
62508;BME280;48556;51.972;4.624;2023-02-18T11:36:22;101919.63;;;12.67;89.52
62508;BME280;48556;51.972;4.624;2023-02-18T11:42:15;101917.03;;;12.52;89.01
62508;BME280;48556;51.972;4.624;2023-02-18T11:45:27;101917.81;;;12.74;88.02
62508;BME280;48556;51.972;4.624;2023-02-18T11:48:18;101914.38;;;12.55;88.72
62508;BME280;48556;51.972;4.624;2023-02-18T11:50:51;101916.91;;;12.79;88.05
62508;BME280;48556;51.972;4.624;2023-02-18T11:53:31;101924.94;;;12.52;88.75
62508;BME280;48556;51.972;4.624;2023-02-18T11:56:00;101912.63;;;12.55;88.89
62508;BME280;48556;51.972;4.624;2023-02-18T11:58:42;101914.28;;;12.78;88.23
62508;BME280;48556;51.972;4.624;2023-02-18T12:01:31;101917.88;;;12.61;88.28
62508;BME280;48556;51.972;4.624;2023-02-18T12:09:34;101910.69;;;13.01;86.79
62508;BME280;48556;51.972;4.624;2023-02-18T12:12:12;101900.19;;;12.82;87.29
62508;BME280;48556;51.972;4.624;2023-02-18T12:14:40;101909.00;;;12.84;86.81
62508;BME280;48556;51.972;4.624;2023-02-18T12:17:10;101892.38;;;12.56;88.19
62508;BME280;48556;51.972;4.624;2023-02-18T12:20:16;101900.28;;;12.63;88.90
62508;BME280;48556;51.972;4.624;2023-02-18T12:26:11;101886.84;;;13.14;86.63
62508;BME280;48556;51.972;4.624;2023-02-18T12:29:12;101897.28;;;13.34;85.47
62508;BME280;48556;51.972;4.624;2023-02-18T12:37:28;101928.03;;;13.53;84.35
62508;BME280;48556;51.972;4.624;2023-02-18T12:49:21;101919.28;;;13.41;83.88
62508;BME280;48556;51.972;4.624;2023-02-18T12:57:35;101893.75;;;13.40;85.77
62508;BME280;48556;51.972;4.624;2023-02-18T13:00:39;101908.22;;;14.03;81.99
62508;BME280;48556;51.972;4.624;2023-02-18T13:03:25;101904.09;;;13.71;82.05
62508;BME280;48556;51.972;4.624;2023-02-18T13:15:33;101896.66;;;14.13;81.07
62508;BME280;48556;51.972;4.624;2023-02-18T13:18:09;101909.59;;;14.43;78.78
62508;BME280;48556;51.972;4.624;2023-02-18T13:20:44;101917.53;;;14.41;79.11
62508;BME280;48556;51.972;4.624;2023-02-18T13:23:25;101909.41;;;14.61;77.99
62508;BME280;48556;51.972;4.624;2023-02-18T13:29:28;101889.31;;;14.43;78.10
62508;BME280;48556;51.972;4.624;2023-02-18T13:41:10;101906.19;;;14.30;78.25
62508;BME280;48556;51.972;4.624;2023-02-18T13:44:08;101906.94;;;14.46;78.53
62508;BME280;48556;51.972;4.624;2023-02-18T13:46:49;101910.84;;;14.89;76.60
62508;BME280;48556;51.972;4.624;2023-02-18T13:49:31;101906.00;;;15.21;74.83
62508;BME280;48556;51.972;4.624;2023-02-18T13:52:00;101904.34;;;15.72;72.99
62508;BME280;48556;51.972;4.624;2023-02-18T13:54:45;101913.88;;;15.85;70.96
62508;BME280;48556;51.972;4.624;2023-02-18T13:57:16;101920.41;;;16.17;69.21
62508;BME280;48556;51.972;4.624;2023-02-18T13:59:58;101915.31;;;16.52;68.01
62508;BME280;48556;51.972;4.624;2023-02-18T14:02:35;101919.16;;;17.24;64.68
62508;BME280;48556;51.972;4.624;2023-02-18T14:05:22;101910.94;;;16.51;66.42
62508;BME280;48556;51.972;4.624;2023-02-18T14:08:36;101916.34;;;15.96;69.29
62508;BME280;48556;51.972;4.624;2023-02-18T14:13:40;101909.97;;;14.90;74.38
62508;BME280;48556;51.972;4.624;2023-02-18T14:16:09;101917.44;;;14.50;77.02
62508;BME280;48556;51.972;4.624;2023-02-18T14:19:00;101919.13;;;14.64;75.96
62508;BME280;48556;51.972;4.624;2023-02-18T14:21:41;101900.72;;;14.48;77.32
62508;BME280;48556;51.972;4.624;2023-02-18T14:24:10;101907.72;;;14.54;77.54
62508;BME280;48556;51.972;4.624;2023-02-18T14:26:45;101923.72;;;14.43;78.31
62508;BME280;48556;51.972;4.624;2023-02-18T14:29:17;101911.16;;;14.59;77.93
62508;BME280;48556;51.972;4.624;2023-02-18T14:31:48;101911.06;;;14.72;77.18
62508;BME280;48556;51.972;4.624;2023-02-18T14:42:27;101928.72;;;13.78;80.87
62508;BME280;48556;51.972;4.624;2023-02-18T14:45:16;101916.63;;;13.44;83.20
62508;BME280;48556;51.972;4.624;2023-02-18T14:50:57;101921.59;;;13.88;80.98
62508;BME280;48556;51.972;4.624;2023-02-18T14:53:44;101924.59;;;13.40;83.12
62508;BME280;48556;51.972;4.624;2023-02-18T14:56:14;101915.75;;;13.45;83.68
62508;BME280;48556;51.972;4.624;2023-02-18T14:58:51;101923.75;;;13.22;84.99
62508;BME280;48556;51.972;4.624;2023-02-18T15:01:21;101918.44;;;13.27;85.10
62508;BME280;48556;51.972;4.624;2023-02-18T15:03:55;101918.53;;;13.11;85.40
62508;BME280;48556;51.972;4.624;2023-02-18T15:06:32;101920.13;;;13.49;84.13
62508;BME280;48556;51.972;4.624;2023-02-18T15:09:00;101918.22;;;13.65;83.81
62508;BME280;48556;51.972;4.624;2023-02-18T15:12:03;101927.25;;;13.30;85.40
62508;BME280;48556;51.972;4.624;2023-02-18T15:14:31;101921.16;;;13.19;85.88
62508;BME280;48556;51.972;4.624;2023-02-18T15:16:59;101935.22;;;13.24;85.30
62508;BME280;48556;51.972;4.624;2023-02-18T15:19:29;101916.78;;;13.13;86.23
62508;BME280;48556;51.972;4.624;2023-02-18T15:22:02;101916.84;;;12.99;87.50